Ana Sayfa
METAR-TAF:

METAR-TAF

Havaalanları :

Skyhaven Airport

Rochester, New Hampshire, Amerika Birleşik Devletleri

Enlem: 43-16-41N, Boylam: 070-55-20W, yükseklik: 98 m

Güncel hava durumu gözlemi

Rapor saat 14:51 UTC de 59 dakika önce yapıldı.
Sakin rüzgar
Sıcaklık -3°C
Nem 58%
Basınç 1032 hPa
Görüş mesafesi: 16.1 km
11000 ft yükseklikte az bulutlu

METAR: KDAW 141451Z AUTO 00000KT 10SM FEW110 M03/M10 A3048 RMK AO2 SLP323 T10281100 52008

Saat: 10:50 (15:50 UTC)


TAF: eksik

4.000'den fazla havaalanı için hava durumu gözlemleri ve tahminleri (METAR ve TAF raporları).

Kullanılabilir istasyonlar harita üzerinde sarı ve kırmızı noktalarla gösterilir.

İstasyonun adını görmek için fareyi noktanın üzerinde gezdirin.

Sonrasında hava gözlem ve tahminlerini görmek için tıklayın.

Haritayı değiştirmek için: yaklaştırmak için siyah artı işaretli yeşil düğmeye ve uzaklaştırmak için de eksi işaretli düğmeye hızla tıklayın; bitişik haritalar için yeşil okları kullanın.


METAR-TAF: